Time;durP1;ratioP1;P1;durP2;ratioP2;P2;SDS_P1;SDS_P2;PMS_P1;PMS_P2;Temp;Humidity;BMP_temperature;BMP_pressure;BME280_temperature;BME280_humidity;BME280_pressure;Samples;Min_cycle;Max_cycle;Signal;HPM_P1;HPM_P2
2021/11/30 00:01:14;;;;;;;;;;;;;;;10.73;59.44;97410.88;5055188;28;20036;-73
2021/11/30 00:03:40;;;;;;;0.00;0.00;;;;;;;10.69;59.12;97401.13;5072453;28;19912;-73
2021/11/30 00:06:07;;;;;;;0.00;0.00;;;;;;;10.70;59.34;97402.69;5073867;28;20036;-75
2021/11/30 00:08:34;;;;;;;0.00;0.00;;;;;;;10.69;59.75;97407.28;5061438;28;20032;-74
2021/11/30 00:11:02;;;;;;;0.00;0.00;;;;;;;10.68;59.90;97396.88;5055842;28;20096;-75
2021/11/30 00:13:29;;;;;;;0.00;0.00;;;;;;;10.60;60.33;97393.13;5052952;28;20025;-72
2021/11/30 00:15:56;;;;;;;0.00;0.00;;;;;;;10.69;60.21;97387.75;5086762;28;20040;-73
2021/11/30 00:18:23;;;;;;;0.00;0.00;;;;;;;10.65;60.56;97384.94;5090294;28;21745;-72
2021/11/30 00:20:49;;;;;;;0.00;0.00;;;;;;;10.67;60.34;97377.38;5074178;28;20035;-72
2021/11/30 00:23:15;;;;;;;0.00;0.00;;;;;;;10.70;60.57;97376.72;5073366;28;20032;-72
2021/11/30 00:25:41;;;;;;;0.00;0.00;;;;;;;10.75;60.00;97372.34;5072101;28;20033;-71
2021/11/30 00:28:08;;;;;;;0.00;0.00;;;;;;;10.73;60.41;97373.44;5072064;28;20027;-71
2021/11/30 00:30:35;;;;;;;0.00;0.00;;;;;;;10.76;60.34;97373.91;5071840;28;20032;-72
2021/11/30 00:33:03;;;;;;;0.00;0.00;;;;;;;10.75;59.91;97369.66;5072138;28;20032;-75
2021/11/30 00:35:29;;;;;;;0.00;0.00;;;;;;;10.77;60.70;97351.44;5054146;28;20511;-73
2021/11/30 00:37:55;;;;;;;0.00;0.00;;;;;;;10.76;60.34;97345.28;5072117;28;20486;-79
2021/11/30 00:40:21;;;;;;;0.00;0.00;;;;;;;10.81;60.56;97357.69;5054232;28;20134;-77
2021/11/30 00:42:47;;;;;;;0.00;0.00;;;;;;;10.82;60.38;97345.91;5053531;28;20475;-72
2021/11/30 00:45:20;;;;;;;0.00;0.00;;;;;;;10.84;60.22;97347.16;5076041;28;20020;-74
2021/11/30 00:47:53;;;;;;;0.00;0.00;;;;;;;10.81;61.22;97320.25;5067402;28;20415;-72
2021/11/30 00:50:21;;;;;;;0.00;0.00;;;;;;;10.88;60.48;97315.97;5071808;28;20036;-73
2021/11/30 00:52:47;;;;;;;0.00;0.00;;;;;;;10.91;61.01;97311.88;5053574;28;20063;-73
2021/11/30 00:55:13;;;;;;;0.00;0.00;;;;;;;10.86;60.59;97296.81;5086306;28;20064;-72
2021/11/30 00:57:41;;;;;;;0.00;0.00;;;;;;;10.91;61.09;97314.56;5091504;28;20035;-71
2021/11/30 01:00:14;;;;;;;0.00;0.00;;;;;;;10.91;60.76;97309.19;5088946;28;20024;-73
2021/11/30 01:02:39;;;;;;;1.77;1.05;;;;;;;10.89;60.88;97303.41;5074546;28;20036;-72
2021/11/30 01:05:07;;;;;;;0.00;0.00;;;;;;;10.95;61.38;97325.38;5091732;28;20062;-73
2021/11/30 01:07:35;;;;;;;0.00;0.00;;;;;;;10.95;61.16;97336.09;5091838;28;20031;-76
2021/11/30 01:10:04;;;;;;;0.00;0.00;;;;;;;10.94;61.05;97340.66;5089826;28;20032;-74
2021/11/30 01:12:30;;;;;;;0.00;0.00;;;;;;;11.00;60.75;97338.59;5071264;28;20063;-71
2021/11/30 01:14:55;;;;;;;0.00;0.00;;;;;;;11.00;61.17;97336.72;5071547;28;20060;-73
2021/11/30 01:17:21;;;;;;;0.00;0.00;;;;;;;11.02;60.83;97344.41;5087440;28;20028;-74
2021/11/30 01:19:46;;;;;;;0.00;0.00;;;;;;;10.90;61.21;97323.69;5073283;28;20403;-72
2021/11/30 01:22:12;;;;;;;0.00;0.00;;;;;;;10.99;60.76;97323.66;5091351;28;20027;-72
2021/11/30 01:24:37;;;;;;;0.10;0.10;;;;;;;10.92;61.31;97326.81;5091079;28;20467;-74
2021/11/30 01:27:03;;;;;;;0.00;0.00;;;;;;;10.92;60.78;97337.53;5091194;28;20402;-74
2021/11/30 01:29:29;;;;;;;0.00;0.00;;;;;;;10.90;61.03;97342.41;5073921;28;20032;-74
2021/11/30 01:31:54;;;;;;;0.00;0.00;;;;;;;10.86;61.00;97328.09;5053064;28;20025;-74
2021/11/30 01:34:19;;;;;;;0.00;0.00;;;;;;;10.76;61.39;97315.88;5072841;28;20032;-77
2021/11/30 01:36:45;;;;;;;0.05;0.05;;;;;;;10.69;61.40;97313.69;5073121;28;20483;-77
2021/11/30 01:39:10;;;;;;;0.00;0.00;;;;;;;10.55;61.78;97294.38;5063025;28;20483;-72
2021/11/30 01:41:38;;;;;;;0.00;0.00;;;;;;;10.51;62.29;97291.56;5070550;28;20029;-72
2021/11/30 01:44:08;;;;;;;0.00;0.00;;;;;;;10.41;62.83;97284.66;5071108;28;20036;-74
2021/11/30 01:47:10;;;;;;;0.08;0.08;;;;;;;10.43;63.29;97280.91;5052580;28;20036;-74
2021/11/30 01:49:34;;;;;;;0.00;0.00;;;;;;;10.29;64.20;97247.09;5082701;28;20059;-74
2021/11/30 01:52:19;;;;;;;0.00;0.00;;;;;;;10.21;64.39;97238.00;5073095;28;20406;-73
2021/11/30 01:54:45;;;;;;;0.00;0.00;;;;;;;10.15;65.36;97241.16;5072884;28;20032;-74
2021/11/30 01:57:14;;;;;;;0.00;0.00;;;;;;;10.14;66.03;97228.91;5072980;28;20028;-74
2021/11/30 01:59:40;;;;;;;0.00;0.00;;;;;;;10.12;66.97;97212.41;5089010;28;20059;-72
2021/11/30 02:02:06;;;;;;;0.43;0.38;;;;;;;10.14;67.47;97207.53;5071057;28;20029;-73
2021/11/30 02:04:32;;;;;;;0.15;0.15;;;;;;;10.17;68.13;97204.25;5088736;28;20044;-74
2021/11/30 02:06:58;;;;;;;0.00;0.00;;;;;;;10.14;68.78;97197.63;5071877;28;20031;-74
2021/11/30 02:09:23;;;;;;;3.40;0.70;;;;;;;10.16;68.97;97200.78;5080174;28;20029;-72
2021/11/30 02:11:51;;;;;;;0.70;0.70;;;;;;;10.13;69.12;97187.25;5086012;28;20032;-72
2021/11/30 02:14:17;;;;;;;0.15;0.15;;;;;;;10.09;70.23;97193.25;5069817;28;20039;-72
2021/11/30 02:16:44;;;;;;;0.00;0.00;;;;;;;10.16;70.60;97200.00;5069566;28;20032;-71
2021/11/30 02:19:10;;;;;;;0.00;0.00;;;;;;;10.17;71.11;97174.84;5069807;28;20059;-76
2021/11/30 02:21:39;;;;;;;0.00;0.00;;;;;;;10.20;72.37;97169.63;5069635;28;20064;-77
2021/11/30 02:24:04;;;;;;;;;;;;;;;10.24;73.74;97178.59;5052306;28;20036;-77
2021/11/30 02:26:32;;;;;;;0.00;0.00;;;;;;;10.27;73.74;97173.72;5088783;28;19996;-77
2021/11/30 02:28:58;;;;;;;0.00;0.00;;;;;;;10.25;74.45;97161.47;5058512;28;20032;-75
2021/11/30 02:31:29;;;;;;;0.00;0.00;;;;;;;10.29;74.72;97137.56;5051792;28;20405;-75
2021/11/30 02:33:56;;;;;;;0.00;0.00;;;;;;;10.20;76.20;97115.44;5069097;28;20029;-72
2021/11/30 02:36:35;;;;;;;0.00;0.00;;;;;;;10.21;77.08;97106.31;5071314;28;20028;-73
2021/11/30 02:39:03;;;;;;;0.00;0.00;;;;;;;10.25;77.66;97125.94;5073189;28;20067;-74
2021/11/30 02:41:29;;;;;;;;;;;;;;;10.24;79.30;97113.69;5073023;28;20435;-73
2021/11/30 02:43:54;;;;;;;0.00;0.00;;;;;;;10.13;79.50;97081.22;5072535;28;19909;-74
2021/11/30 02:46:44;;;;;;;0.00;0.00;;;;;;;10.16;81.01;97064.53;5072983;28;20174;-74
2021/11/30 02:49:13;;;;;;;0.00;0.00;;;;;;;10.09;81.16;97062.38;5073382;28;20024;-74
2021/11/30 02:51:41;;;;;;;;;;;;;;;10.05;81.59;97036.63;5055171;28;20024;-72
2021/11/30 02:54:12;;;;;;;0.00;0.00;;;;;;;10.00;82.32;97026.16;5072600;28;20341;-75
2021/11/30 02:56:50;;;;;;;7.43;1.10;;;;;;;9.95;82.31;97008.41;5054660;28;20131;-75
2021/11/30 02:59:16;;;;;;;0.00;0.00;;;;;;;9.89;82.56;96993.69;5068040;28;20051;-72
2021/11/30 03:01:50;;;;;;;0.00;0.00;;;;;;;9.81;83.49;96979.25;5092482;28;20491;-73
2021/11/30 03:04:16;;;;;;;0.00;0.00;;;;;;;9.77;83.79;96991.69;5045710;28;1341320;-73
2021/11/30 03:06:42;;;;;;;0.00;0.00;;;;;;;9.71;83.65;97012.41;5093980;28;20036;-73
2021/11/30 03:09:09;;;;;;;0.00;0.00;;;;;;;9.75;84.40;97017.91;5083404;28;20053;-73
2021/11/30 03:11:35;;;;;;;0.00;0.00;;;;;;;9.72;84.22;96997.22;5085172;28;20056;-74
2021/11/30 03:14:01;;;;;;;0.00;0.00;;;;;;;9.69;84.09;96987.16;5073454;28;20472;-75
2021/11/30 03:16:26;;;;;;;0.00;0.00;;;;;;;9.69;84.01;96977.28;5055683;28;20471;-74
2021/11/30 03:18:52;;;;;;;0.00;0.00;;;;;;;9.68;84.44;96978.38;5073497;28;20491;-75
2021/11/30 03:21:18;;;;;;;0.00;0.00;;;;;;;9.64;84.09;96977.44;5055894;28;20474;-75
2021/11/30 03:23:43;;;;;;;0.00;0.00;;;;;;;9.65;84.30;96987.00;5055706;28;20028;-75
2021/11/30 03:26:10;;;;;;;0.00;0.00;;;;;;;9.67;84.29;96986.72;5064143;28;20048;-74
2021/11/30 03:28:36;;;;;;;0.00;0.00;;;;;;;9.55;84.87;96969.47;5083280;28;20063;-74
2021/11/30 03:31:04;;;;;;;0.00;0.00;;;;;;;9.54;84.90;96951.13;5093194;28;20459;-70
2021/11/30 03:36:14;;;;;;;0.00;0.00;;;;;;;9.44;85.98;96931.69;5076162;28;20318;-71
2021/11/30 03:38:39;;;;;;;0.00;0.00;;;;;;;9.40;86.33;96930.78;5057624;28;20028;-69
2021/11/30 03:41:05;;;;;;;2.38;0.47;;;;;;;9.34;87.04;96929.38;5092712;28;20036;-70
2021/11/30 03:43:31;;;;;;;0.00;0.00;;;;;;;9.18;87.69;96928.31;5093417;28;20036;-70
2021/11/30 03:45:56;;;;;;;0.00;0.00;;;;;;;9.20;88.16;96929.56;5092860;28;20027;-71
2021/11/30 03:48:22;;;;;;;0.00;0.00;;;;;;;9.16;88.42;96927.88;5093074;28;20020;-69
2021/11/30 03:50:47;;;;;;;0.00;0.00;;;;;;;9.18;88.84;96941.66;5092834;28;20107;-73
2021/11/30 03:53:13;;;;;;;0.00;0.00;;;;;;;9.06;88.93;96924.44;5093133;28;20024;-73
2021/11/30 03:55:39;;;;;;;0.00;0.00;;;;;;;9.03;89.12;96916.28;5074440;28;20074;-71
2021/11/30 03:58:04;;;;;;;0.50;0.50;;;;;;;9.12;88.87;96931.16;5072906;28;20031;-73
2021/11/30 04:00:30;;;;;;;0.00;0.00;;;;;;;9.05;88.97;96922.88;5072654;28;20035;-72
2021/11/30 04:02:56;;;;;;;0.00;0.00;;;;;;;9.06;89.33;96923.66;5073636;28;20056;-80
2021/11/30 04:05:22;;;;;;;0.00;0.00;;;;;;;9.07;89.32;96922.53;5054404;28;20488;-74
2021/11/30 04:07:47;;;;;;;0.00;0.00;;;;;;;9.04;89.28;96915.19;5072533;28;20036;-72
2021/11/30 04:10:13;;;;;;;0.00;0.00;;;;;;;9.12;89.77;96925.06;5072311;28;20435;-75
2021/11/30 04:12:39;;;;;;;0.00;0.00;;;;;;;9.15;89.37;96915.66;5072785;28;20055;-75
2021/11/30 04:15:05;;;;;;;0.00;0.00;;;;;;;9.17;89.26;96908.88;5077140;28;20077;-75
2021/11/30 04:17:30;;;;;;;0.43;0.43;;;;;;;9.21;89.00;96909.03;5064527;28;20032;-75
2021/11/30 04:19:56;;;;;;;0.00;0.00;;;;;;;9.20;89.28;96902.13;5091368;28;20031;-72
2021/11/30 04:22:21;;;;;;;0.00;0.00;;;;;;;9.31;88.86;96911.34;5085579;28;20091;-73
2021/11/30 04:24:46;;;;;;;0.00;0.00;;;;;;;9.38;88.77;96929.53;5072444;28;20472;-73
2021/11/30 04:27:12;;;;;;;0.00;0.00;;;;;;;9.42;88.41;96927.78;5054361;28;20034;-71
2021/11/30 04:29:39;;;;;;;0.00;0.00;;;;;;;9.45;88.41;96929.81;5072024;28;20020;-74
2021/11/30 04:32:05;;;;;;;0.00;0.00;;;;;;;9.48;88.04;96942.50;5054192;28;20060;-75
2021/11/30 04:34:32;;;;;;;0.00;0.00;;;;;;;9.55;87.94;96939.34;5057559;28;20372;-76
2021/11/30 04:36:57;;;;;;;0.00;0.00;;;;;;;9.59;87.76;96938.41;5053763;28;20029;-73
2021/11/30 04:39:23;;;;;;;0.00;0.00;;;;;;;9.64;87.82;96950.75;5054079;28;20016;-75
2021/11/30 04:41:48;;;;;;;0.00;0.00;;;;;;;9.67;87.45;96944.78;5071607;28;20521;-76
2021/11/30 04:44:14;;;;;;;0.00;0.00;;;;;;;9.67;87.38;96934.09;5083950;28;20055;-73
2021/11/30 04:46:57;;;;;;;0.00;0.00;;;;;;;9.71;87.02;96940.34;5066178;28;20032;-75
2021/11/30 04:52:02;;;;;;;0.00;0.00;;;;;;;9.66;86.95;96926.44;5107998;28;20042;-75
2021/11/30 04:54:27;;;;;;;0.00;0.00;;;;;;;9.71;86.81;96931.56;5107462;28;20102;-76
2021/11/30 04:56:53;;;;;;;0.00;0.00;;;;;;;9.73;87.08;96961.41;5062232;28;20186;-72
2021/11/30 04:59:20;;;;;;;0.00;0.00;;;;;;;9.60;84.25;96987.97;5075623;28;20028;-70
2021/11/30 05:01:46;;;;;;;0.08;0.08;;;;;;;9.37;78.62;96989.31;5071416;28;20031;-71
2021/11/30 05:04:13;;;;;;;0.00;0.00;;;;;;;9.16;77.13;96992.66;5071378;28;20048;-71
2021/11/30 05:06:38;;;;;;;0.00;0.00;;;;;;;9.00;76.59;97011.03;5057212;28;20028;-75
2021/11/30 05:09:05;;;;;;;0.00;0.00;;;;;;;8.79;76.16;97016.22;5089727;28;20035;-70
2021/11/30 05:11:31;;;;;;;0.00;0.00;;;;;;;8.54;76.51;96999.13;5091705;28;20099;-74
2021/11/30 05:13:56;;;;;;;0.13;0.13;;;;;;;8.38;76.37;97020.06;5073107;28;20035;-73
2021/11/30 05:16:22;;;;;;;0.40;0.40;;;;;;;8.15;76.88;97009.53;5091639;28;20032;-73
2021/11/30 05:18:47;;;;;;;0.15;0.15;;;;;;;7.93;77.78;97007.75;5073180;28;20024;-72
2021/11/30 05:21:13;;;;;;;0.03;0.03;;;;;;;7.83;78.41;97017.56;5091460;28;20051;-73
2021/11/30 05:23:41;;;;;;;0.30;0.30;;;;;;;7.73;78.73;97027.72;5089597;28;20118;-73
2021/11/30 05:26:08;;;;;;;0.00;0.00;;;;;;;7.60;79.46;97022.16;5091740;28;20031;-74
2021/11/30 05:28:35;;;;;;;0.10;0.10;;;;;;;7.43;79.70;97019.44;5091276;28;20028;-75
2021/11/30 05:31:02;;;;;;;0.17;0.17;;;;;;;7.33;80.42;97021.25;5071265;28;20460;-73
2021/11/30 05:33:28;;;;;;;0.10;0.10;;;;;;;7.34;80.61;97045.97;5088390;28;20038;-70
2021/11/30 05:35:54;;;;;;;0.00;0.00;;;;;;;7.28;80.84;97049.84;5072703;28;20028;-70
2021/11/30 05:38:19;;;;;;;0.00;0.00;;;;;;;7.25;81.66;97050.44;5070400;28;20403;-70
2021/11/30 05:40:45;;;;;;;0.00;0.00;;;;;;;7.01;82.07;97043.56;5070117;28;20032;-70
2021/11/30 05:43:11;;;;;;;0.00;0.00;;;;;;;7.16;82.45;97069.78;5070933;28;20035;-70
2021/11/30 05:45:37;;;;;;;0.00;0.00;;;;;;;7.18;82.39;97080.91;5070955;28;20089;-70
2021/11/30 05:48:03;;;;;;;0.00;0.00;;;;;;;7.20;82.22;97091.22;5070589;28;20111;-71
2021/11/30 05:50:29;;;;;;;0.00;0.00;;;;;;;7.06;82.69;97091.28;5071160;28;20025;-69
2021/11/30 05:52:54;;;;;;;0.13;0.13;;;;;;;7.09;83.25;97103.97;5070289;28;20498;-69
2021/11/30 05:55:20;;;;;;;0.00;0.00;;;;;;;7.10;83.73;97126.81;5070618;28;20024;-69
2021/11/30 05:57:45;;;;;;;0.00;0.00;;;;;;;6.99;83.42;97112.19;5070987;28;20029;-69
2021/11/30 06:00:15;;;;;;;0.00;0.00;;;;;;;7.01;84.11;97134.72;5070893;28;20016;-72
2021/11/30 06:05:46;;;;;;;0.00;0.00;;;;;;;7.04;85.28;97171.34;5008062;28;20204;-70
2021/11/30 06:08:12;;;;;;;0.10;0.10;;;;;;;6.96;84.31;97157.97;5008851;28;20113;-70
2021/11/30 06:10:37;;;;;;;0.00;0.00;;;;;;;6.89;82.79;97172.41;5037795;28;20052;-69
2021/11/30 06:13:03;;;;;;;0.43;0.43;;;;;;;6.88;81.66;97194.00;5074223;28;20507;-71
2021/11/30 06:15:28;;;;;;;0.88;0.88;;;;;;;6.82;81.11;97208.47;5074579;28;20115;-71
2021/11/30 06:17:54;;;;;;;0.00;0.00;;;;;;;6.71;80.37;97205.22;5074526;28;20021;-71
2021/11/30 06:20:21;;;;;;;0.20;0.20;;;;;;;6.53;80.24;97202.38;5074670;28;20090;-71
2021/11/30 06:22:47;;;;;;;0.10;0.10;;;;;;;6.55;80.13;97221.47;5074317;28;20035;-71
2021/11/30 06:25:12;;;;;;;0.00;0.00;;;;;;;6.48;79.79;97234.34;5074604;28;20032;-71
2021/11/30 06:27:38;;;;;;;0.00;0.00;;;;;;;6.29;80.21;97237.06;5074448;28;20549;-71
2021/11/30 06:30:05;;;;;;;0.00;0.00;;;;;;;6.20;79.96;97239.59;5074240;28;20399;-71
2021/11/30 06:32:31;;;;;;;0.00;0.00;;;;;;;6.15;79.96;97263.56;5072929;28;20040;-71
2021/11/30 06:34:56;;;;;;;0.00;0.00;;;;;;;6.09;80.26;97278.78;5074495;28;20093;-70
2021/11/30 06:37:22;;;;;;;0.00;0.00;;;;;;;5.95;80.64;97280.56;5074085;28;20032;-71
2021/11/30 06:39:47;;;;;;;0.10;0.10;;;;;;;5.94;81.19;97297.56;5056107;28;20464;-70
2021/11/30 06:42:13;;;;;;;0.00;0.00;;;;;;;5.78;80.91;97289.03;5073985;28;20462;-69
2021/11/30 06:44:38;;;;;;;0.00;0.00;;;;;;;5.79;81.56;97332.28;5074002;28;20028;-70
2021/11/30 06:47:05;;;;;;;0.00;0.00;;;;;;;5.69;81.92;97333.97;5073932;28;20105;-70
2021/11/30 06:49:31;;;;;;;0.00;0.00;;;;;;;5.63;82.00;97336.97;5074076;28;20031;-70
2021/11/30 06:51:58;;;;;;;0.00;0.00;;;;;;;5.59;81.28;97345.53;5073841;28;20024;-70
2021/11/30 06:54:23;;;;;;;0.00;0.00;;;;;;;5.51;81.75;97353.31;5073679;28;20482;-70
2021/11/30 06:56:49;;;;;;;0.00;0.00;;;;;;;5.44;82.89;97357.13;5074089;28;20024;-69
2021/11/30 06:59:14;;;;;;;0.00;0.00;;;;;;;5.41;82.79;97380.75;5073746;28;20499;-70
2021/11/30 07:01:42;;;;;;;0.00;0.00;;;;;;;5.41;83.01;97388.69;5073912;28;20029;-70
2021/11/30 07:04:09;;;;;;;0.00;0.00;;;;;;;5.27;83.50;97380.63;5074015;28;20130;-72
2021/11/30 07:06:42;;;;;;;0.00;0.00;;;;;;;5.32;83.71;97387.72;5073950;28;20028;-70
2021/11/30 07:11:55;;;;;;;0.00;0.00;;;;;;;5.24;82.37;97427.03;5073811;28;20064;-70
2021/11/30 07:14:20;;;;;;;0.00;0.00;;;;;;;5.22;82.46;97431.81;5073780;28;20035;-70
2021/11/30 07:16:47;;;;;;;0.00;0.00;;;;;;;5.16;82.49;97440.88;5073078;28;20029;-70
2021/11/30 07:19:14;;;;;;;0.00;0.00;;;;;;;5.01;82.11;97425.16;5073323;28;20078;-71
2021/11/30 07:21:41;;;;;;;0.00;0.00;;;;;;;5.07;82.12;97450.53;5073196;28;20107;-70
2021/11/30 07:24:06;;;;;;;0.00;0.00;;;;;;;5.01;82.59;97449.78;5073306;28;20024;-70
2021/11/30 07:26:32;;;;;;;0.00;0.00;;;;;;;4.86;82.54;97434.81;5055536;28;20086;-70
2021/11/30 07:28:58;;;;;;;0.00;0.00;;;;;;;4.96;83.01;97466.50;5073211;28;20028;-70
2021/11/30 07:31:23;;;;;;;0.00;0.00;;;;;;;4.97;81.67;97465.44;5073371;28;20037;-71
2021/11/30 07:33:49;;;;;;;0.00;0.00;;;;;;;5.07;82.30;97474.38;5055094;28;20028;-71
2021/11/30 07:36:18;;;;;;;0.00;0.00;;;;;;;5.06;81.96;97475.44;5073078;28;20119;-71
2021/11/30 07:38:46;;;;;;;0.00;0.00;;;;;;;5.09;81.52;97469.56;5073315;28;20032;-71
2021/11/30 07:41:12;;;;;;;0.00;0.00;;;;;;;5.15;81.11;97488.88;5073179;28;20032;-72
2021/11/30 07:43:38;;;;;;;0.00;0.00;;;;;;;5.16;80.35;97499.19;5073043;28;20032;-72
2021/11/30 07:46:05;;;;;;;0.00;0.00;;;;;;;5.17;80.28;97481.44;5072650;28;20039;-71
2021/11/30 07:48:31;;;;;;;0.00;0.00;;;;;;;5.06;80.52;97484.16;5073086;28;20097;-71
2021/11/30 07:50:59;;;;;;;0.00;0.00;;;;;;;5.04;79.92;97472.28;5072850;28;20384;-71
2021/11/30 07:53:24;;;;;;;0.00;0.00;;;;;;;5.21;79.44;97503.66;5073056;28;20403;-71
2021/11/30 07:55:51;;;;;;;0.00;0.00;;;;;;;5.22;78.48;97499.94;5054821;28;20032;-71
2021/11/30 07:58:18;;;;;;;0.00;0.00;;;;;;;5.21;77.04;97477.97;5072893;28;20050;-71
2021/11/30 08:00:44;;;;;;;0.00;0.00;;;;;;;5.25;74.98;97500.19;5072591;28;20115;-70
2021/11/30 08:03:10;;;;;;;0.00;0.00;;;;;;;5.09;75.21;97475.69;5072557;28;20556;-71
2021/11/30 08:05:35;;;;;;;0.00;0.00;;;;;;;5.23;73.89;97493.59;5072866;28;20055;-70
2021/11/30 08:08:02;;;;;;;0.00;0.00;;;;;;;5.24;73.53;97503.91;5072139;28;20116;-70
2021/11/30 08:10:28;;;;;;;0.00;0.00;;;;;;;5.28;72.97;97504.94;5072664;28;20031;-71
2021/11/30 08:12:54;;;;;;;0.00;0.00;;;;;;;5.36;72.45;97527.38;5072329;28;20074;-70
2021/11/30 08:15:20;;;;;;;0.00;0.00;;;;;;;5.28;72.80;97509.44;5072658;28;20496;-71
2021/11/30 08:17:46;;;;;;;0.00;0.00;;;;;;;5.42;72.76;97538.72;5072282;28;20047;-70
2021/11/30 08:20:12;;;;;;;0.00;0.00;;;;;;;5.45;72.60;97548.78;5072200;28;20493;-72
2021/11/30 08:22:39;;;;;;;0.00;0.00;;;;;;;5.48;72.60;97561.50;5072188;28;20032;-70
2021/11/30 08:25:06;;;;;;;0.13;0.13;;;;;;;5.50;72.26;97564.63;5071826;28;20032;-71
2021/11/30 08:27:32;;;;;;;0.10;0.10;;;;;;;5.42;70.41;97557.28;5072359;28;20472;-71
2021/11/30 08:29:58;;;;;;;0.00;0.00;;;;;;;5.47;70.67;97578.47;5054121;28;20075;-71
2021/11/30 08:32:24;;;;;;;0.00;0.00;;;;;;;5.38;70.20;97566.88;5071869;28;20025;-71
2021/11/30 08:34:52;;;;;;;0.00;0.00;;;;;;;5.41;70.44;97569.75;5071006;28;20076;-71
2021/11/30 08:37:19;;;;;;;0.00;0.00;;;;;;;5.51;70.40;97581.34;5072177;28;20029;-72
2021/11/30 08:39:49;;;;;;;0.00;0.00;;;;;;;5.38;69.97;97562.38;5071759;28;20029;-70
2021/11/30 08:42:16;;;;;;;0.10;0.10;;;;;;;5.44;69.59;97563.91;5071959;28;20036;-70
2021/11/30 08:44:42;;;;;;;0.00;0.00;;;;;;;5.46;69.21;97571.59;5054101;28;20040;-71
2021/11/30 08:47:11;;;;;;;0.00;0.00;;;;;;;5.43;68.44;97595.97;5071508;28;20107;-71
2021/11/30 08:49:37;;;;;;;;;;;;;;;5.46;67.81;97619.31;5072563;28;20033;-72
2021/11/30 08:52:04;;;;;;;0.00;0.00;;;;;;;5.46;68.26;97635.22;5071751;28;20011;-69
2021/11/30 08:54:30;;;;;;;1.00;0.95;;;;;;;5.46;67.75;97632.56;5071876;28;20536;-70
2021/11/30 08:56:57;;;;;;;0.00;0.00;;;;;;;5.41;67.41;97627.31;5071588;28;20068;-70
2021/11/30 08:59:23;;;;;;;0.15;0.15;;;;;;;5.45;67.13;97646.88;5071754;28;20470;-69
2021/11/30 09:01:49;;;;;;;0.00;0.00;;;;;;;5.51;66.95;97643.13;5071440;28;20028;-70
2021/11/30 09:04:15;;;;;;;0.10;0.10;;;;;;;5.53;66.90;97646.31;5071365;28;20045;-70
2021/11/30 09:06:41;;;;;;;0.00;0.00;;;;;;;5.52;66.42;97641.28;5071594;28;20028;-69
2021/11/30 09:09:09;;;;;;;0.00;0.00;;;;;;;5.53;66.64;97651.59;5071352;28;20103;-71
2021/11/30 09:11:36;;;;;;;0.00;0.00;;;;;;;5.53;65.84;97648.94;5071606;28;20035;-70
2021/11/30 09:14:02;;;;;;;0.00;0.00;;;;;;;5.45;66.06;97657.50;5071146;28;20089;-70
2021/11/30 09:16:28;;;;;;;0.00;0.00;;;;;;;5.48;64.66;97653.50;5053785;28;20454;-72
2021/11/30 09:18:54;;;;;;;0.00;0.00;;;;;;;5.50;64.87;97675.22;5053204;28;20033;-71
2021/11/30 09:21:19;;;;;;;0.00;0.00;;;;;;;5.54;64.64;97679.72;5071387;28;20028;-71
2021/11/30 09:23:45;;;;;;;0.00;0.00;;;;;;;5.53;64.40;97670.16;5071105;28;20032;-71
2021/11/30 09:26:12;;;;;;;0.00;0.00;;;;;;;5.55;64.31;97668.00;5071177;28;20399;-70
2021/11/30 09:28:38;;;;;;;0.00;0.00;;;;;;;5.56;63.83;97690.03;5071352;28;20064;-71
2021/11/30 09:31:05;;;;;;;0.00;0.00;;;;;;;5.60;63.32;97688.41;5070955;28;20510;-71
2021/11/30 09:33:31;;;;;;;1.40;0.45;;;;;;;5.57;62.79;97665.09;5053145;28;20055;-70
2021/11/30 09:35:56;;;;;;;0.00;0.00;;;;;;;5.63;62.66;97692.34;5070946;28;20016;-70
2021/11/30 09:38:22;;;;;;;0.00;0.00;;;;;;;5.56;61.80;97684.72;5071107;28;20033;-70
2021/11/30 09:40:51;;;;;;;0.00;0.00;;;;;;;5.64;61.60;97693.94;5070852;28;20407;-71
2021/11/30 09:43:18;;;;;;;0.00;0.00;;;;;;;5.56;61.35;97696.13;5071075;28;20055;-71
2021/11/30 09:45:43;;;;;;;0.00;0.00;;;;;;;5.52;61.19;97678.41;5052952;28;20403;-71
2021/11/30 09:48:13;;;;;;;0.65;0.47;;;;;;;5.54;60.91;97689.50;5053030;28;20029;-71
2021/11/30 09:50:41;;;;;;;0.00;0.00;;;;;;;5.59;60.93;97673.56;5071020;28;20029;-71
2021/11/30 09:53:07;;;;;;;0.00;0.00;;;;;;;5.55;61.09;97722.91;5071015;28;20085;-70
2021/11/30 09:55:34;;;;;;;0.38;0.38;;;;;;;5.56;61.43;97721.84;5070956;28;20115;-70
2021/11/30 09:57:59;;;;;;;0.00;0.00;;;;;;;5.55;60.85;97739.63;5070656;28;20031;-69
2021/11/30 10:00:25;;;;;;;0.00;0.00;;;;;;;5.57;60.75;97737.50;5070587;28;20085;-70
2021/11/30 10:02:51;;;;;;;0.00;0.00;;;;;;;5.38;60.52;97721.44;5070681;28;20439;-70
2021/11/30 10:05:19;;;;;;;0.00;0.00;;;;;;;5.46;60.31;97733.31;5070870;28;20133;-71
2021/11/30 10:07:51;;;;;;;0.00;0.00;;;;;;;5.51;60.37;97743.13;5052602;28;20702;-71
2021/11/30 10:10:30;;;;;;;0.00;0.00;;;;;;;5.43;60.29;97739.97;5070441;28;20035;-70
2021/11/30 10:13:04;;;;;;;0.20;0.20;;;;;;;5.48;60.15;97754.25;5070625;28;20028;-71
2021/11/30 10:15:33;;;;;;;0.00;0.00;;;;;;;5.41;60.34;97750.03;5052721;28;20509;-70
2021/11/30 10:18:18;;;;;;;2.10;0.52;;;;;;;5.53;60.48;97784.19;5070336;28;20021;-71
2021/11/30 10:20:46;;;;;;;0.00;0.00;;;;;;;5.44;60.71;97767.25;5070631;28;20119;-70
2021/11/30 10:23:12;;;;;;;0.00;0.00;;;;;;;5.54;60.28;97779.69;5070764;28;20162;-71
2021/11/30 10:25:41;;;;;;;0.68;0.43;;;;;;;5.50;60.23;97771.47;5070459;28;20066;-70
2021/11/30 10:28:12;;;;;;;;;;;;;;;5.59;60.46;97793.72;5070880;28;20483;-70
2021/11/30 10:30:42;;;;;;;0.00;0.00;;;;;;;5.60;58.86;97783.88;5070399;28;19908;-71
2021/11/30 10:33:12;;;;;;;0.00;0.00;;;;;;;5.52;59.89;97784.47;5052368;28;20377;-70
2021/11/30 10:35:38;;;;;;;0.22;0.22;;;;;;;5.61;59.05;97778.31;5070527;28;20035;-71
2021/11/30 10:38:05;;;;;;;0.00;0.00;;;;;;;5.63;58.09;97790.50;5069972;28;20028;-71
2021/11/30 10:40:34;;;;;;;0.00;0.00;;;;;;;5.66;58.16;97800.56;5052345;28;20032;-71
2021/11/30 10:43:02;;;;;;;0.00;0.00;;;;;;;5.64;58.58;97813.31;5070215;28;20043;-71
2021/11/30 10:45:33;;;;;;;0.00;0.00;;;;;;;5.67;58.07;97824.16;5070502;28;20021;-71
2021/11/30 10:48:17;;;;;;;0.00;0.00;;;;;;;5.68;58.09;97814.34;5052459;28;20036;-71
2021/11/30 10:50:44;;;;;;;0.00;0.00;;;;;;;5.77;58.02;97831.25;5052428;28;20035;-71
2021/11/30 10:53:23;;;;;;;0.00;0.00;;;;;;;5.76;57.92;97813.75;5070366;28;20094;-72
2021/11/30 10:55:54;;;;;;;0.00;0.00;;;;;;;5.75;56.96;97820.16;5070166;28;20043;-70
2021/11/30 10:58:22;;;;;;;0.55;0.45;;;;;;;5.67;57.12;97815.41;5055469;28;20028;-70
2021/11/30 11:00:48;;;;;;;0.00;0.00;;;;;;;5.63;56.58;97807.22;5073755;28;20021;-71
2021/11/30 11:03:21;;;;;;;0.00;0.00;;;;;;;5.71;58.02;97821.75;5073694;28;20036;-71
2021/11/30 11:08:48;;;;;;;0.00;0.00;;;;;;;5.75;57.59;97838.72;5073665;28;20644;-72
2021/11/30 11:11:27;;;;;;;1.08;1.08;;;;;;;5.66;57.57;97838.47;5073747;28;20150;-72
2021/11/30 11:13:53;;;;;;;0.10;0.10;;;;;;;5.79;57.71;97876.13;5073493;28;20021;-71
2021/11/30 11:16:21;;;;;;;0.00;0.00;;;;;;;5.77;57.73;97874.53;5073673;28;20486;-71
2021/11/30 11:18:50;;;;;;;0.00;0.00;;;;;;;5.73;57.23;97848.81;5073166;28;20070;-70
2021/11/30 11:21:35;;;;;;;0.00;0.00;;;;;;;5.74;56.45;97868.97;5073637;28;20035;-71
2021/11/30 11:24:07;;;;;;;0.00;0.00;;;;;;;5.71;57.18;97874.81;5073529;28;20032;-72
2021/11/30 11:26:32;;;;;;;0.00;0.00;;;;;;;5.73;57.66;97872.69;5055006;28;20090;-70
2021/11/30 11:29:01;;;;;;;0.20;0.20;;;;;;;5.61;57.33;97852.59;5073044;28;20024;-71
2021/11/30 11:31:28;;;;;;;1.08;0.22;;;;;;;5.73;57.75;97888.59;5073103;28;20431;-72
2021/11/30 11:33:55;;;;;;;0.00;0.00;;;;;;;5.72;57.69;97877.19;5073166;28;20028;-70
2021/11/30 11:36:21;;;;;;;0.00;0.00;;;;;;;5.68;57.20;97875.38;5073389;28;20483;-71
2021/11/30 11:38:47;;;;;;;0.20;0.20;;;;;;;5.66;56.35;97872.97;5072706;28;20385;-71
2021/11/30 11:41:13;;;;;;;0.00;0.00;;;;;;;5.74;56.53;97888.31;5055063;28;20044;-71
2021/11/30 11:43:40;;;;;;;0.05;0.05;;;;;;;5.67;56.48;97879.09;5073240;28;20040;-70
2021/11/30 11:46:12;;;;;;;0.00;0.00;;;;;;;5.67;57.01;97889.69;5055020;28;20028;-70
2021/11/30 11:48:39;;;;;;;0.08;0.08;;;;;;;5.67;56.42;97887.03;5072830;28;20527;-71
2021/11/30 11:51:06;;;;;;;0.00;0.00;;;;;;;5.71;55.99;97906.63;5072799;28;20035;-71
2021/11/30 11:53:35;;;;;;;0.00;0.00;;;;;;;5.64;55.84;97895.53;5054870;28;20040;-71
2021/11/30 11:56:13;;;;;;;0.00;0.00;;;;;;;5.61;56.08;97904.81;5072704;28;20474;-70